createdAt,value
2022-09-06T00:00:51.914Z,71.25
2022-09-06T00:03:49.776Z,71.40
2022-09-06T00:06:47.317Z,71.45
2022-09-06T00:09:44.768Z,71.57
2022-09-06T00:12:42.335Z,71.63
2022-09-06T00:15:39.839Z,71.69
2022-09-06T00:18:37.735Z,71.75
2022-09-06T00:21:35.812Z,71.86
2022-09-06T00:24:33.278Z,71.98
2022-09-06T00:27:31.237Z,72.10
2022-09-06T00:30:28.686Z,72.20
2022-09-06T00:33:26.141Z,72.32
2022-09-06T00:36:23.608Z,72.46
2022-09-06T00:39:21.074Z,72.58
2022-09-06T00:42:18.543Z,72.68
2022-09-06T00:45:15.984Z,72.74
2022-09-06T00:48:13.480Z,72.85
2022-09-06T00:51:10.968Z,72.89
2022-09-06T00:54:08.471Z,72.99
2022-09-06T00:57:05.959Z,73.11
2022-09-06T01:00:03.535Z,73.19
2022-09-06T01:03:01.053Z,73.27
2022-09-06T01:05:58.525Z,73.36
2022-09-06T01:08:56.008Z,73.43
2022-09-06T01:11:53.478Z,73.49
2022-09-06T01:14:50.955Z,73.55
2022-09-06T01:17:48.544Z,73.63
2022-09-06T01:20:46.009Z,73.70
2022-09-06T01:23:43.504Z,73.79
2022-09-06T01:26:40.974Z,73.85
2022-09-06T01:29:38.461Z,73.92
2022-09-06T01:32:35.934Z,73.99
2022-09-06T01:35:33.473Z,74.08
2022-09-06T01:38:30.972Z,74.19
2022-09-06T01:41:28.433Z,74.24
2022-09-06T01:44:25.904Z,74.33
2022-09-06T01:47:23.376Z,74.38
2022-09-06T01:50:20.872Z,74.46
2022-09-06T01:53:18.357Z,74.57
2022-09-06T01:56:15.875Z,74.65
2022-09-06T01:59:13.367Z,74.75
2022-09-06T02:02:11.204Z,74.81
2022-09-06T02:05:08.719Z,74.88
2022-09-06T02:08:07.973Z,74.97
2022-09-06T02:11:05.444Z,75.06
2022-09-06T02:14:02.957Z,75.13
2022-09-06T02:17:00.446Z,75.19
2022-09-06T02:19:57.962Z,75.26
2022-09-06T02:22:56.555Z,75.38
2022-09-06T02:25:54.032Z,75.41
2022-09-06T02:28:51.504Z,75.52
2022-09-06T02:31:48.980Z,75.60
2022-09-06T02:34:46.853Z,75.64
2022-09-06T02:37:44.326Z,75.69
2022-09-06T02:40:42.451Z,75.75
2022-09-06T02:43:40.298Z,75.81
2022-09-06T02:46:37.801Z,75.89
2022-09-06T02:49:35.275Z,75.97
2022-09-06T02:52:32.731Z,76.03
2022-09-06T02:55:30.207Z,76.07
2022-09-06T02:58:27.868Z,76.09
2022-09-06T03:01:25.493Z,76.11
2022-09-06T03:04:23.112Z,76.20
2022-09-06T03:07:20.582Z,76.28
2022-09-06T03:10:18.058Z,76.34
2022-09-06T03:13:15.811Z,76.42
2022-09-06T03:16:13.633Z,76.48
2022-09-06T03:19:11.185Z,76.50
2022-09-06T03:22:08.656Z,76.58
2022-09-06T03:25:06.128Z,76.60
2022-09-06T03:28:03.594Z,76.62
2022-09-06T03:31:01.165Z,76.60
2022-09-06T03:33:58.662Z,76.60
2022-09-06T03:36:56.193Z,76.66
2022-09-06T03:39:54.088Z,76.69
2022-09-06T03:42:51.614Z,76.70
2022-09-06T03:45:49.177Z,76.75
2022-09-06T03:48:47.389Z,76.81
2022-09-06T03:51:44.877Z,76.88
2022-09-06T03:54:42.323Z,76.90
2022-09-06T03:57:39.814Z,76.90
2022-09-06T04:00:37.310Z,76.92
2022-09-06T04:03:34.800Z,76.96
2022-09-06T04:06:32.265Z,76.98
2022-09-06T04:09:29.750Z,76.97
2022-09-06T04:12:27.237Z,77.06
2022-09-06T04:15:24.723Z,77.11
2022-09-06T04:18:22.273Z,77.15
2022-09-06T04:21:19.846Z,77.21
2022-09-06T04:24:17.326Z,77.28
2022-09-06T04:27:14.803Z,77.38
2022-09-06T04:30:12.292Z,77.48
2022-09-06T04:33:09.774Z,77.50
2022-09-06T04:36:07.301Z,77.50
2022-09-06T04:39:05.597Z,77.51
2022-09-06T04:42:03.094Z,77.52
2022-09-06T04:45:00.560Z,77.56
2022-09-06T04:47:58.049Z,77.61
2022-09-06T04:50:55.555Z,77.67
2022-09-06T04:53:53.021Z,77.72
2022-09-06T04:56:50.567Z,77.81
2022-09-06T04:59:48.030Z,77.80
2022-09-06T05:02:45.812Z,77.82
2022-09-06T05:05:43.307Z,77.88
2022-09-06T05:08:41.175Z,77.89
2022-09-06T05:11:38.684Z,77.93
2022-09-06T05:14:36.174Z,78.04
2022-09-06T05:17:33.645Z,78.10
2022-09-06T05:20:31.133Z,78.10
2022-09-06T05:23:28.611Z,78.10
2022-09-06T05:26:26.143Z,78.02
2022-09-06T05:29:26.475Z,77.98
2022-09-06T05:32:26.310Z,77.91
2022-09-06T05:35:23.798Z,77.90
2022-09-06T05:38:21.341Z,77.82
2022-09-06T05:41:18.832Z,77.78
2022-09-06T05:44:16.321Z,77.65
2022-09-06T05:47:13.800Z,77.47
2022-09-06T05:50:11.283Z,77.34
2022-09-06T05:53:08.768Z,77.14
2022-09-06T05:56:06.213Z,76.90
2022-09-06T05:59:04.589Z,76.66
2022-09-06T06:02:06.625Z,76.38
2022-09-06T06:05:05.334Z,76.08
2022-09-06T06:08:02.795Z,75.73
2022-09-06T06:11:00.371Z,75.38
2022-09-06T06:13:59.061Z,75.03
2022-09-06T06:16:56.616Z,74.63
2022-09-06T06:19:54.880Z,74.15
2022-09-06T06:22:52.464Z,73.74
2022-09-06T06:25:49.930Z,73.27
2022-09-06T06:28:47.410Z,72.69
2022-09-06T06:31:45.005Z,72.16
2022-09-06T06:34:42.571Z,71.51
2022-09-06T06:37:40.053Z,70.81
2022-09-06T06:40:37.528Z,70.35
2022-09-06T06:43:38.116Z,69.47
2022-09-06T06:46:35.711Z,68.88
2022-09-06T06:49:33.193Z,68.05
2022-09-06T06:52:30.722Z,67.28
2022-09-06T06:55:28.184Z,66.19
2022-09-06T06:58:25.686Z,65.38
2022-09-06T07:01:23.346Z,64.68
2022-09-06T07:04:20.926Z,63.79
2022-09-06T07:07:35.559Z,62.98
2022-09-06T07:10:35.677Z,62.10
2022-09-06T07:13:34.338Z,61.08
2022-09-06T07:16:31.843Z,60.37
2022-09-06T07:22:46.793Z,58.08
2022-09-06T07:25:44.259Z,57.35
2022-09-06T07:28:41.735Z,57.19
2022-09-06T07:34:56.666Z,55.31
2022-09-06T07:37:54.143Z,54.67
2022-09-06T07:40:51.639Z,53.91
2022-09-06T07:43:51.507Z,53.11
2022-09-06T07:46:49.092Z,52.40
2022-09-06T07:53:07.008Z,50.58
2022-09-06T07:56:04.767Z,50.15
2022-09-06T07:59:02.254Z,49.88
2022-09-06T08:01:59.783Z,49.38
2022-09-06T08:04:57.342Z,49.08
2022-09-06T08:11:12.306Z,48.26
2022-09-06T08:14:10.054Z,47.41
2022-09-06T08:17:07.517Z,46.51
2022-09-06T08:20:05.019Z,46.48
2022-09-06T08:23:02.489Z,46.29
2022-09-06T08:25:59.998Z,45.95
2022-09-06T08:28:58.264Z,45.57
2022-09-06T08:31:55.808Z,44.73
2022-09-06T08:34:53.365Z,44.46
2022-09-06T08:37:50.859Z,43.92
2022-09-06T08:40:48.352Z,43.54
2022-09-06T08:43:46.237Z,42.86
2022-09-06T08:46:43.810Z,42.12
2022-09-06T08:49:41.326Z,41.53
2022-09-06T08:52:45.310Z,41.45
2022-09-06T08:55:53.035Z,41.48
2022-09-06T08:58:50.504Z,41.09
2022-09-06T09:01:48.057Z,40.63
2022-09-06T09:04:45.654Z,39.86
2022-09-06T09:07:43.149Z,40.11
2022-09-06T09:10:40.769Z,39.73
2022-09-06T09:13:38.393Z,39.28
2022-09-06T09:16:35.944Z,39.14
2022-09-06T09:19:36.895Z,38.56
2022-09-06T09:22:34.423Z,38.08
2022-09-06T09:25:31.916Z,37.89
2022-09-06T09:28:29.514Z,37.81
2022-09-06T09:31:27.152Z,37.68
2022-09-06T09:34:24.663Z,37.68
2022-09-06T09:40:40.498Z,36.63
2022-09-06T09:43:37.983Z,36.24
2022-09-06T09:46:35.515Z,35.92
2022-09-06T09:49:33.449Z,35.77
2022-09-06T09:52:31.090Z,35.68
2022-09-06T09:55:28.587Z,35.64
2022-09-06T09:58:26.145Z,35.37
2022-09-06T10:01:23.684Z,35.37
2022-09-06T10:07:38.677Z,35.26
2022-09-06T10:10:36.168Z,34.89
2022-09-06T10:13:34.488Z,34.47
2022-09-06T10:16:32.047Z,34.45
2022-09-06T10:19:29.568Z,34.58
2022-09-06T10:22:27.053Z,34.30
2022-09-06T10:25:24.521Z,34.22
2022-09-06T10:28:21.994Z,33.95
2022-09-06T10:31:19.552Z,33.81
2022-09-06T10:34:17.430Z,33.66
2022-09-06T10:37:15.124Z,33.83
2022-09-06T10:40:12.761Z,33.64
2022-09-06T10:43:10.473Z,33.62
2022-09-06T10:46:09.529Z,33.63
2022-09-06T10:49:07.081Z,33.40
2022-09-06T10:52:04.546Z,32.97
2022-09-06T10:55:04.838Z,32.68
2022-09-06T10:58:20.652Z,32.33
2022-09-06T11:01:18.922Z,31.98
2022-09-06T11:04:20.251Z,32.08
2022-09-06T11:07:17.718Z,31.76
2022-09-06T11:10:15.214Z,31.38
2022-09-06T11:13:12.696Z,31.40
2022-09-06T11:16:10.321Z,31.30
2022-09-06T11:19:08.016Z,31.08
2022-09-06T11:22:05.480Z,30.83
2022-09-06T11:25:02.975Z,30.54
2022-09-06T11:28:00.445Z,30.37
2022-09-06T11:30:57.998Z,30.17
2022-09-06T11:33:58.372Z,30.27
2022-09-06T11:36:58.322Z,30.27
2022-09-06T11:43:13.259Z,29.50
2022-09-06T11:46:10.784Z,29.47
2022-09-06T11:49:08.306Z,29.47
2022-09-06T11:52:05.785Z,29.02
2022-09-06T11:55:04.196Z,28.53
2022-09-06T11:58:01.665Z,28.79
2022-09-06T12:00:59.125Z,29.39
2022-09-06T12:04:05.543Z,29.82
2022-09-06T12:07:04.607Z,29.69
2022-09-06T12:10:02.128Z,29.82
2022-09-06T12:12:59.603Z,29.70
2022-09-06T12:15:57.714Z,29.90
2022-09-06T12:18:55.230Z,30.32
2022-09-06T12:21:52.886Z,31.12
2022-09-06T12:24:50.362Z,31.77
2022-09-06T12:27:47.842Z,32.53
2022-09-06T12:30:45.324Z,33.20
2022-09-06T12:33:44.360Z,33.90
2022-09-06T12:36:41.839Z,34.44
2022-09-06T12:39:39.341Z,34.75
2022-09-06T12:42:36.862Z,34.98
2022-09-06T12:45:34.368Z,35.49
2022-09-06T12:48:31.857Z,35.55
2022-09-06T12:51:29.375Z,35.67
2022-09-06T12:54:26.863Z,35.94
2022-09-06T12:57:24.386Z,35.99
2022-09-06T13:00:21.947Z,35.93
2022-09-06T13:03:19.448Z,35.76
2022-09-06T13:06:20.395Z,35.99
2022-09-06T13:09:21.855Z,36.33
2022-09-06T13:12:19.362Z,36.52
2022-09-06T13:15:16.868Z,36.92
2022-09-06T13:18:14.342Z,37.22
2022-09-06T13:21:14.443Z,36.92
2022-09-06T13:24:12.738Z,36.62
2022-09-06T13:27:10.217Z,36.78
2022-09-06T13:30:09.232Z,36.72
2022-09-06T13:33:07.173Z,36.63
2022-09-06T13:36:04.633Z,36.47
2022-09-06T13:39:04.248Z,36.25
2022-09-06T13:42:02.003Z,36.22
2022-09-06T13:45:02.101Z,36.13
2022-09-06T13:48:13.062Z,36.46
2022-09-06T13:51:18.483Z,36.89
2022-09-06T13:54:15.970Z,37.12
2022-09-06T13:57:13.442Z,37.06
2022-09-06T14:00:11.618Z,36.97
2022-09-06T14:03:09.099Z,37.19
2022-09-06T14:06:07.282Z,37.33
2022-09-06T14:09:07.642Z,37.45
2022-09-06T14:12:06.076Z,37.51
2022-09-06T14:15:03.780Z,37.48
2022-09-06T14:18:01.249Z,37.92
2022-09-06T14:20:59.285Z,38.42
2022-09-06T14:23:58.877Z,38.80
2022-09-06T14:26:59.576Z,39.10
2022-09-06T14:29:57.076Z,39.42
2022-09-06T14:32:54.552Z,39.90
2022-09-06T14:35:52.517Z,40.28
2022-09-06T14:38:49.985Z,40.41
2022-09-06T14:41:47.477Z,40.51
2022-09-06T14:44:45.009Z,40.73
2022-09-06T14:47:42.499Z,40.52
2022-09-06T14:50:39.977Z,40.45
2022-09-06T14:53:40.774Z,40.42
2022-09-06T14:56:40.128Z,40.71
2022-09-06T14:59:37.616Z,40.89
2022-09-06T15:02:35.197Z,41.04
2022-09-06T15:05:32.893Z,41.18
2022-09-06T15:08:30.377Z,41.27
2022-09-06T15:11:30.338Z,41.52
2022-09-06T15:14:29.449Z,41.84
2022-09-06T15:17:26.966Z,42.20
2022-09-06T15:20:24.431Z,42.40
2022-09-06T15:23:25.299Z,42.60
2022-09-06T15:26:23.332Z,42.83
2022-09-06T15:29:21.544Z,43.03
2022-09-06T15:32:19.033Z,43.17
2022-09-06T15:35:17.745Z,43.33
2022-09-06T15:38:15.475Z,43.67
2022-09-06T15:41:12.949Z,43.89
2022-09-06T15:44:10.796Z,43.93
2022-09-06T15:47:08.264Z,44.18
2022-09-06T15:50:07.130Z,44.38
2022-09-06T15:53:04.601Z,44.70
2022-09-06T15:56:02.833Z,45.14
2022-09-06T15:59:00.318Z,45.24
2022-09-06T16:01:57.850Z,45.58
2022-09-06T16:04:55.367Z,46.06
2022-09-06T16:07:52.872Z,46.42
2022-09-06T16:10:50.367Z,46.77
2022-09-06T16:13:47.837Z,46.91
2022-09-06T16:16:45.934Z,47.23
2022-09-06T16:19:44.755Z,47.67
2022-09-06T16:22:42.227Z,48.06
2022-09-06T16:25:39.719Z,48.42
2022-09-06T16:28:37.215Z,48.79
2022-09-06T16:31:39.790Z,48.72
2022-09-06T16:34:38.554Z,48.65
2022-09-06T16:37:36.288Z,48.78
2022-09-06T16:40:33.738Z,48.95
2022-09-06T16:43:31.220Z,49.21
2022-09-06T16:46:29.807Z,49.20
2022-09-06T16:49:27.435Z,49.30
2022-09-06T16:52:25.035Z,49.41
2022-09-06T16:55:22.516Z,49.60
2022-09-06T16:58:19.988Z,49.78
2022-09-06T17:01:17.559Z,50.06
2022-09-06T17:04:15.135Z,50.22
2022-09-06T17:07:12.605Z,50.20
2022-09-06T17:10:10.120Z,50.24
2022-09-06T17:13:07.703Z,50.37
2022-09-06T17:16:22.932Z,50.48
2022-09-06T17:19:20.481Z,50.67
2022-09-06T17:22:17.937Z,50.79
2022-09-06T17:25:15.703Z,50.84
2022-09-06T17:28:13.427Z,51.07
2022-09-06T17:31:11.372Z,51.35
2022-09-06T17:34:09.190Z,51.54
2022-09-06T17:37:06.762Z,51.69
2022-09-06T17:40:04.520Z,51.99
2022-09-06T17:43:02.583Z,52.31
2022-09-06T17:46:00.497Z,52.47
2022-09-06T17:48:58.454Z,52.78
2022-09-06T17:51:56.825Z,52.90
2022-09-06T17:54:55.360Z,53.17
2022-09-06T17:57:53.122Z,53.46
2022-09-06T18:00:51.423Z,53.65
2022-09-06T18:03:49.406Z,53.83
2022-09-06T18:06:48.366Z,53.99
2022-09-06T18:09:46.904Z,54.00
2022-09-06T18:12:44.390Z,54.06
2022-09-06T18:15:42.729Z,54.17
2022-09-06T18:18:40.290Z,54.26
2022-09-06T18:21:37.812Z,54.37
2022-09-06T18:24:35.658Z,54.54
2022-09-06T18:27:33.276Z,54.53
2022-09-06T18:30:31.162Z,54.74
2022-09-06T18:33:29.079Z,54.93
2022-09-06T18:36:31.755Z,55.11
2022-09-06T18:39:30.301Z,55.31
2022-09-06T18:42:27.866Z,55.42
2022-09-06T18:45:25.464Z,55.51
2022-09-06T18:48:23.233Z,55.75
2022-09-06T18:51:21.174Z,55.98
2022-09-06T18:54:19.069Z,56.07
2022-09-06T18:57:17.723Z,56.19
2022-09-06T19:00:16.157Z,56.39
2022-09-06T19:03:14.099Z,56.56
2022-09-06T19:06:12.126Z,56.88
2022-09-06T19:09:10.039Z,57.17
2022-09-06T19:12:07.641Z,57.42
2022-09-06T19:15:05.141Z,57.68
2022-09-06T19:18:03.578Z,57.92
2022-09-06T19:21:01.509Z,58.17
2022-09-06T19:23:59.475Z,58.43
2022-09-06T19:26:57.573Z,58.68
2022-09-06T19:29:55.471Z,58.92
2022-09-06T19:32:53.444Z,59.17
2022-09-06T19:36:10.577Z,59.38
2022-09-06T19:39:09.525Z,59.67
2022-09-06T19:42:07.721Z,59.85
2022-09-06T19:45:06.523Z,60.09
2022-09-06T19:48:04.438Z,60.29
2022-09-06T19:51:02.840Z,60.47
2022-09-06T19:54:01.274Z,60.67
2022-09-06T19:56:59.294Z,60.97
2022-09-06T19:59:57.258Z,61.20
2022-09-06T20:02:55.033Z,61.42
2022-09-06T20:05:52.863Z,61.60
2022-09-06T20:08:50.777Z,61.74
2022-09-06T20:11:48.722Z,61.80
2022-09-06T20:14:46.944Z,61.97
2022-09-06T20:17:44.751Z,62.13
2022-09-06T20:20:42.661Z,62.34
2022-09-06T20:23:40.564Z,62.55
2022-09-06T20:26:38.443Z,62.74
2022-09-06T20:29:36.276Z,62.93
2022-09-06T20:32:34.119Z,63.15
2022-09-06T20:35:32.060Z,63.32
2022-09-06T20:38:30.114Z,63.58
2022-09-06T20:41:27.849Z,63.82
2022-09-06T20:44:25.679Z,64.01
2022-09-06T20:47:23.514Z,64.23
2022-09-06T20:50:21.907Z,64.45
2022-09-06T20:53:19.906Z,64.69
2022-09-06T20:56:17.504Z,64.88
2022-09-06T20:59:15.256Z,65.07
2022-09-06T21:02:12.819Z,65.33
2022-09-06T21:05:10.628Z,65.58
2022-09-06T21:08:08.113Z,65.75
2022-09-06T21:11:05.629Z,65.94
2022-09-06T21:14:03.427Z,66.16
2022-09-06T21:17:00.901Z,66.39
2022-09-06T21:19:58.442Z,66.64
2022-09-06T21:22:56.056Z,66.79
2022-09-06T21:25:53.540Z,66.98
2022-09-06T21:28:51.021Z,67.17
2022-09-06T21:31:48.693Z,67.32
2022-09-06T21:34:46.355Z,67.52
2022-09-06T21:37:43.841Z,67.67
2022-09-06T21:40:41.343Z,67.83
2022-09-06T21:43:38.813Z,67.95
2022-09-06T21:46:36.524Z,68.08
2022-09-06T21:49:34.051Z,68.21
2022-09-06T21:52:32.526Z,68.42
2022-09-06T21:55:30.040Z,68.60
2022-09-06T21:58:27.542Z,68.82
2022-09-06T22:01:25.094Z,68.99
2022-09-06T22:04:23.305Z,69.08
2022-09-06T22:07:20.811Z,69.24
2022-09-06T22:10:18.296Z,69.45
2022-09-06T22:13:15.749Z,69.64
2022-09-06T22:16:13.314Z,69.78
2022-09-06T22:19:10.927Z,69.85
2022-09-06T22:22:08.426Z,69.92
2022-09-06T22:25:05.975Z,70.04
2022-09-06T22:28:03.434Z,70.13
2022-09-06T22:31:00.943Z,70.25
2022-09-06T22:33:58.456Z,70.40
2022-09-06T22:36:55.943Z,70.53
2022-09-06T22:39:53.500Z,70.63
2022-09-06T22:42:51.027Z,70.68
2022-09-06T22:45:51.972Z,70.87
2022-09-06T22:48:50.494Z,71.05
2022-09-06T22:51:48.002Z,71.23
2022-09-06T22:54:45.597Z,71.41
2022-09-06T22:57:43.073Z,71.53
2022-09-06T23:00:40.608Z,71.65
2022-09-06T23:03:38.149Z,71.82
2022-09-06T23:06:35.715Z,71.95
2022-09-06T23:09:33.200Z,72.12
2022-09-06T23:12:30.700Z,72.27
2022-09-06T23:15:28.184Z,72.38
2022-09-06T23:18:25.690Z,72.52
2022-09-06T23:21:23.182Z,72.60
2022-09-06T23:24:20.738Z,72.75
2022-09-06T23:27:18.243Z,72.87
2022-09-06T23:30:15.704Z,72.96
2022-09-06T23:33:13.286Z,73.01
2022-09-06T23:36:10.749Z,73.07
2022-09-06T23:39:08.749Z,73.21
2022-09-06T23:42:06.230Z,73.27
2022-09-06T23:45:03.723Z,73.37
2022-09-06T23:48:01.256Z,73.47
2022-09-06T23:50:58.734Z,73.62
2022-09-06T23:53:56.263Z,73.78
2022-09-06T23:56:53.743Z,73.87
2022-09-06T23:59:51.234Z,73.90
